sensor_id;sensor_type;location;lat;lon;timestamp;temperature;humidity
37240;DHT22;23130;48.760;9.178;2023-12-07T00:00:50;2.40;99.90
37240;DHT22;23130;48.760;9.178;2023-12-07T00:03:15;2.40;99.90
37240;DHT22;23130;48.760;9.178;2023-12-07T00:05:41;2.40;99.90
37240;DHT22;23130;48.760;9.178;2023-12-07T00:08:09;2.40;99.90
37240;DHT22;23130;48.760;9.178;2023-12-07T00:10:34;2.40;99.90
37240;DHT22;23130;48.760;9.178;2023-12-07T00:13:00;2.40;99.90
37240;DHT22;23130;48.760;9.178;2023-12-07T00:15:25;2.40;99.90
37240;DHT22;23130;48.760;9.178;2023-12-07T00:17:50;2.40;99.90
37240;DHT22;23130;48.760;9.178;2023-12-07T00:20:16;2.40;99.90
37240;DHT22;23130;48.760;9.178;2023-12-07T00:22:42;2.40;99.90
37240;DHT22;23130;48.760;9.178;2023-12-07T00:25:07;2.50;99.90
37240;DHT22;23130;48.760;9.178;2023-12-07T00:27:33;2.50;99.90
37240;DHT22;23130;48.760;9.178;2023-12-07T00:29:59;2.40;99.90
37240;DHT22;23130;48.760;9.178;2023-12-07T00:32:25;2.50;99.90
37240;DHT22;23130;48.760;9.178;2023-12-07T00:34:53;2.50;99.90
37240;DHT22;23130;48.760;9.178;2023-12-07T00:37:18;2.60;99.90
37240;DHT22;23130;48.760;9.178;2023-12-07T00:39:44;2.60;99.90
37240;DHT22;23130;48.760;9.178;2023-12-07T00:42:10;2.60;99.90
37240;DHT22;23130;48.760;9.178;2023-12-07T00:44:39;2.60;99.90
37240;DHT22;23130;48.760;9.178;2023-12-07T00:47:05;2.60;99.90
37240;DHT22;23130;48.760;9.178;2023-12-07T00:49:31;2.60;99.90
37240;DHT22;23130;48.760;9.178;2023-12-07T00:51:56;2.60;99.90
37240;DHT22;23130;48.760;9.178;2023-12-07T00:54:22;2.60;99.90
37240;DHT22;23130;48.760;9.178;2023-12-07T00:56:47;2.60;99.90
37240;DHT22;23130;48.760;9.178;2023-12-07T00:59:13;2.60;99.90
37240;DHT22;23130;48.760;9.178;2023-12-07T01:01:38;2.60;99.90
37240;DHT22;23130;48.760;9.178;2023-12-07T01:04:04;2.60;99.90
37240;DHT22;23130;48.760;9.178;2023-12-07T01:06:31;2.60;99.90
37240;DHT22;23130;48.760;9.178;2023-12-07T01:08:57;2.60;99.90
37240;DHT22;23130;48.760;9.178;2023-12-07T01:11:22;2.60;99.90
37240;DHT22;23130;48.760;9.178;2023-12-07T01:13:48;2.60;99.90
37240;DHT22;23130;48.760;9.178;2023-12-07T01:16:13;2.60;99.90
37240;DHT22;23130;48.760;9.178;2023-12-07T01:18:39;2.50;99.90
37240;DHT22;23130;48.760;9.178;2023-12-07T01:21:04;2.40;99.90
37240;DHT22;23130;48.760;9.178;2023-12-07T01:23:31;2.40;99.90
37240;DHT22;23130;48.760;9.178;2023-12-07T01:25:57;2.40;99.90
37240;DHT22;23130;48.760;9.178;2023-12-07T01:28:22;2.40;99.90
37240;DHT22;23130;48.760;9.178;2023-12-07T01:30:48;2.40;99.90
37240;DHT22;23130;48.760;9.178;2023-12-07T01:33:15;2.30;99.90
37240;DHT22;23130;48.760;9.178;2023-12-07T01:35:41;2.30;99.90
37240;DHT22;23130;48.760;9.178;2023-12-07T01:38:06;2.30;99.90
37240;DHT22;23130;48.760;9.178;2023-12-07T01:40:32;2.40;99.90
37240;DHT22;23130;48.760;9.178;2023-12-07T01:42:57;2.40;99.90
37240;DHT22;23130;48.760;9.178;2023-12-07T01:45:23;2.50;99.90
37240;DHT22;23130;48.760;9.178;2023-12-07T01:47:49;2.50;99.90
37240;DHT22;23130;48.760;9.178;2023-12-07T01:50:15;2.50;99.90
37240;DHT22;23130;48.760;9.178;2023-12-07T01:52:43;2.50;99.90
37240;DHT22;23130;48.760;9.178;2023-12-07T01:55:10;2.40;99.90
37240;DHT22;23130;48.760;9.178;2023-12-07T01:57:36;2.40;99.90
37240;DHT22;23130;48.760;9.178;2023-12-07T02:00:02;2.40;99.90
37240;DHT22;23130;48.760;9.178;2023-12-07T02:02:29;2.30;99.90
37240;DHT22;23130;48.760;9.178;2023-12-07T02:04:54;2.20;99.90
37240;DHT22;23130;48.760;9.178;2023-12-07T02:07:21;2.20;99.90
37240;DHT22;23130;48.760;9.178;2023-12-07T02:09:47;2.20;99.90
37240;DHT22;23130;48.760;9.178;2023-12-07T02:12:13;2.30;99.90
37240;DHT22;23130;48.760;9.178;2023-12-07T02:14:38;2.30;99.90
37240;DHT22;23130;48.760;9.178;2023-12-07T02:17:17;2.30;99.90
37240;DHT22;23130;48.760;9.178;2023-12-07T02:19:47;2.20;99.90
37240;DHT22;23130;48.760;9.178;2023-12-07T02:22:18;2.10;99.90
37240;DHT22;23130;48.760;9.178;2023-12-07T02:25:08;2.00;99.90
37240;DHT22;23130;48.760;9.178;2023-12-07T02:27:42;1.90;99.90
37240;DHT22;23130;48.760;9.178;2023-12-07T02:30:09;1.80;99.90
37240;DHT22;23130;48.760;9.178;2023-12-07T02:32:44;1.80;99.90
37240;DHT22;23130;48.760;9.178;2023-12-07T02:35:10;1.70;99.90
37240;DHT22;23130;48.760;9.178;2023-12-07T02:37:44;1.70;99.90
37240;DHT22;23130;48.760;9.178;2023-12-07T02:40:10;1.60;99.90
37240;DHT22;23130;48.760;9.178;2023-12-07T02:42:37;1.50;99.90
37240;DHT22;23130;48.760;9.178;2023-12-07T02:45:03;1.40;99.90
37240;DHT22;23130;48.760;9.178;2023-12-07T02:47:29;1.30;99.90
37240;DHT22;23130;48.760;9.178;2023-12-07T02:49:55;1.30;99.90
37240;DHT22;23130;48.760;9.178;2023-12-07T02:52:22;1.30;99.90
37240;DHT22;23130;48.760;9.178;2023-12-07T02:54:47;1.30;99.90
37240;DHT22;23130;48.760;9.178;2023-12-07T02:57:13;1.20;99.90
37240;DHT22;23130;48.760;9.178;2023-12-07T02:59:41;1.10;99.90
37240;DHT22;23130;48.760;9.178;2023-12-07T03:02:06;1.20;99.90
37240;DHT22;23130;48.760;9.178;2023-12-07T03:04:32;1.20;99.90
37240;DHT22;23130;48.760;9.178;2023-12-07T03:06:58;1.20;99.90
37240;DHT22;23130;48.760;9.178;2023-12-07T03:09:23;1.20;99.90
37240;DHT22;23130;48.760;9.178;2023-12-07T03:11:48;1.20;99.90
37240;DHT22;23130;48.760;9.178;2023-12-07T03:14:14;1.20;99.90
37240;DHT22;23130;48.760;9.178;2023-12-07T03:16:39;1.10;99.90
37240;DHT22;23130;48.760;9.178;2023-12-07T03:19:06;1.10;99.90
37240;DHT22;23130;48.760;9.178;2023-12-07T03:21:33;1.10;99.90
37240;DHT22;23130;48.760;9.178;2023-12-07T03:23:59;1.10;99.90
37240;DHT22;23130;48.760;9.178;2023-12-07T03:26:25;1.10;99.90
37240;DHT22;23130;48.760;9.178;2023-12-07T03:28:51;1.10;99.90
37240;DHT22;23130;48.760;9.178;2023-12-07T03:31:16;1.10;99.90
37240;DHT22;23130;48.760;9.178;2023-12-07T03:33:42;1.10;99.90
37240;DHT22;23130;48.760;9.178;2023-12-07T03:36:10;1.00;99.90
37240;DHT22;23130;48.760;9.178;2023-12-07T03:38:36;1.00;99.90
37240;DHT22;23130;48.760;9.178;2023-12-07T03:41:02;1.00;99.90
37240;DHT22;23130;48.760;9.178;2023-12-07T03:43:27;1.00;99.90
37240;DHT22;23130;48.760;9.178;2023-12-07T03:45:53;0.90;99.90
37240;DHT22;23130;48.760;9.178;2023-12-07T03:48:19;0.90;99.90
37240;DHT22;23130;48.760;9.178;2023-12-07T03:50:44;0.90;99.90
37240;DHT22;23130;48.760;9.178;2023-12-07T03:53:10;0.80;99.90
37240;DHT22;23130;48.760;9.178;2023-12-07T03:55:35;0.70;99.90
37240;DHT22;23130;48.760;9.178;2023-12-07T03:58:03;0.70;99.90
37240;DHT22;23130;48.760;9.178;2023-12-07T04:00:28;0.60;99.90
37240;DHT22;23130;48.760;9.178;2023-12-07T04:02:55;0.60;99.90
37240;DHT22;23130;48.760;9.178;2023-12-07T04:05:21;0.60;99.90
37240;DHT22;23130;48.760;9.178;2023-12-07T04:07:46;0.50;99.90
37240;DHT22;23130;48.760;9.178;2023-12-07T04:10:12;0.50;99.90
37240;DHT22;23130;48.760;9.178;2023-12-07T04:12:38;0.30;99.90
37240;DHT22;23130;48.760;9.178;2023-12-07T04:15:03;0.30;99.90
37240;DHT22;23130;48.760;9.178;2023-12-07T04:17:30;0.20;99.90
37240;DHT22;23130;48.760;9.178;2023-12-07T04:19:55;0.10;99.90
37240;DHT22;23130;48.760;9.178;2023-12-07T04:22:21;0.00;99.90
37240;DHT22;23130;48.760;9.178;2023-12-07T04:24:46;-0.10;99.90
37240;DHT22;23130;48.760;9.178;2023-12-07T04:27:13;-0.20;99.90
37240;DHT22;23130;48.760;9.178;2023-12-07T04:29:39;-0.20;99.90
37240;DHT22;23130;48.760;9.178;2023-12-07T04:32:05;-0.20;99.90
37240;DHT22;23130;48.760;9.178;2023-12-07T04:34:31;-0.30;99.90
37240;DHT22;23130;48.760;9.178;2023-12-07T04:36:56;-0.30;99.90
37240;DHT22;23130;48.760;9.178;2023-12-07T04:39:22;-0.30;99.90
37240;DHT22;23130;48.760;9.178;2023-12-07T04:41:47;-0.20;99.90
37240;DHT22;23130;48.760;9.178;2023-12-07T04:44:13;-0.20;99.90
37240;DHT22;23130;48.760;9.178;2023-12-07T04:46:40;-0.20;99.90
37240;DHT22;23130;48.760;9.178;2023-12-07T04:49:05;-0.30;99.90
37240;DHT22;23130;48.760;9.178;2023-12-07T04:51:30;-0.20;99.90
37240;DHT22;23130;48.760;9.178;2023-12-07T04:53:56;-0.30;99.90
37240;DHT22;23130;48.760;9.178;2023-12-07T04:56:22;-0.40;99.90
37240;DHT22;23130;48.760;9.178;2023-12-07T04:58:47;-0.40;99.90
37240;DHT22;23130;48.760;9.178;2023-12-07T05:01:13;-0.40;99.90
37240;DHT22;23130;48.760;9.178;2023-12-07T05:03:38;-0.50;99.90
37240;DHT22;23130;48.760;9.178;2023-12-07T05:06:03;-0.40;99.90
37240;DHT22;23130;48.760;9.178;2023-12-07T05:08:29;-0.50;99.90
37240;DHT22;23130;48.760;9.178;2023-12-07T05:10:55;-0.50;99.90
37240;DHT22;23130;48.760;9.178;2023-12-07T05:13:20;-0.50;99.90
37240;DHT22;23130;48.760;9.178;2023-12-07T05:15:46;-0.60;99.90
37240;DHT22;23130;48.760;9.178;2023-12-07T05:18:12;-0.60;99.90
37240;DHT22;23130;48.760;9.178;2023-12-07T05:20:38;-0.70;99.90
37240;DHT22;23130;48.760;9.178;2023-12-07T05:23:04;-0.60;99.90
37240;DHT22;23130;48.760;9.178;2023-12-07T05:25:31;-0.70;99.90
37240;DHT22;23130;48.760;9.178;2023-12-07T05:27:57;-0.70;99.90
37240;DHT22;23130;48.760;9.178;2023-12-07T05:30:23;-0.80;99.90
37240;DHT22;23130;48.760;9.178;2023-12-07T05:32:49;-0.80;99.90
37240;DHT22;23130;48.760;9.178;2023-12-07T05:35:15;-0.80;99.90
37240;DHT22;23130;48.760;9.178;2023-12-07T05:37:41;-0.90;99.90
37240;DHT22;23130;48.760;9.178;2023-12-07T05:40:07;-0.80;99.90
37240;DHT22;23130;48.760;9.178;2023-12-07T05:42:34;-0.90;99.90
37240;DHT22;23130;48.760;9.178;2023-12-07T05:45:00;-0.90;99.90
37240;DHT22;23130;48.760;9.178;2023-12-07T05:47:26;-0.80;99.90
37240;DHT22;23130;48.760;9.178;2023-12-07T05:49:51;-0.80;99.90
37240;DHT22;23130;48.760;9.178;2023-12-07T05:52:17;-0.80;99.90
37240;DHT22;23130;48.760;9.178;2023-12-07T05:54:42;-0.90;99.90
37240;DHT22;23130;48.760;9.178;2023-12-07T05:57:08;-1.00;99.90
37240;DHT22;23130;48.760;9.178;2023-12-07T05:59:37;-1.00;99.90
37240;DHT22;23130;48.760;9.178;2023-12-07T06:02:03;-1.10;99.90
37240;DHT22;23130;48.760;9.178;2023-12-07T06:04:30;-1.00;99.90
37240;DHT22;23130;48.760;9.178;2023-12-07T06:06:57;-1.00;99.90
37240;DHT22;23130;48.760;9.178;2023-12-07T06:09:22;-0.90;99.90
37240;DHT22;23130;48.760;9.178;2023-12-07T06:11:49;-0.80;99.90
37240;DHT22;23130;48.760;9.178;2023-12-07T06:14:15;-0.80;99.90
37240;DHT22;23130;48.760;9.178;2023-12-07T06:16:40;-0.70;99.90
37240;DHT22;23130;48.760;9.178;2023-12-07T06:19:06;-0.60;99.90
37240;DHT22;23130;48.760;9.178;2023-12-07T06:21:33;-0.50;99.90
37240;DHT22;23130;48.760;9.178;2023-12-07T06:23:59;-0.50;99.90
37240;DHT22;23130;48.760;9.178;2023-12-07T06:26:26;-0.50;99.90
37240;DHT22;23130;48.760;9.178;2023-12-07T06:28:51;-0.50;99.90
37240;DHT22;23130;48.760;9.178;2023-12-07T06:31:17;-0.50;99.90
37240;DHT22;23130;48.760;9.178;2023-12-07T06:33:46;-0.60;99.90
37240;DHT22;23130;48.760;9.178;2023-12-07T06:36:23;-0.70;99.90
37240;DHT22;23130;48.760;9.178;2023-12-07T06:38:49;-0.80;99.90
37240;DHT22;23130;48.760;9.178;2023-12-07T06:41:15;-0.90;99.90
37240;DHT22;23130;48.760;9.178;2023-12-07T06:43:44;-0.90;99.90
37240;DHT22;23130;48.760;9.178;2023-12-07T06:46:12;-1.00;99.90
37240;DHT22;23130;48.760;9.178;2023-12-07T06:48:39;-1.00;99.90
37240;DHT22;23130;48.760;9.178;2023-12-07T06:51:07;-1.00;99.90
37240;DHT22;23130;48.760;9.178;2023-12-07T06:53:32;-1.00;99.90
37240;DHT22;23130;48.760;9.178;2023-12-07T06:55:58;-1.10;99.90
37240;DHT22;23130;48.760;9.178;2023-12-07T06:58:23;-1.10;99.90
37240;DHT22;23130;48.760;9.178;2023-12-07T07:00:50;-1.10;99.90
37240;DHT22;23130;48.760;9.178;2023-12-07T07:03:16;-1.10;99.90
37240;DHT22;23130;48.760;9.178;2023-12-07T07:05:42;-0.90;99.90
37240;DHT22;23130;48.760;9.178;2023-12-07T07:08:07;-0.90;99.90
37240;DHT22;23130;48.760;9.178;2023-12-07T07:10:34;-0.90;99.90
37240;DHT22;23130;48.760;9.178;2023-12-07T07:13:02;-0.90;99.90
37240;DHT22;23130;48.760;9.178;2023-12-07T07:15:32;-0.90;99.90
37240;DHT22;23130;48.760;9.178;2023-12-07T07:17:57;-0.90;99.90
37240;DHT22;23130;48.760;9.178;2023-12-07T07:20:23;-1.00;99.90
37240;DHT22;23130;48.760;9.178;2023-12-07T07:22:49;-1.00;99.90
37240;DHT22;23130;48.760;9.178;2023-12-07T07:25:15;-1.00;99.90
37240;DHT22;23130;48.760;9.178;2023-12-07T07:27:41;-1.00;99.90
37240;DHT22;23130;48.760;9.178;2023-12-07T07:30:07;-1.00;99.90
37240;DHT22;23130;48.760;9.178;2023-12-07T07:32:34;-1.00;99.90
37240;DHT22;23130;48.760;9.178;2023-12-07T07:34:59;-1.00;99.90
37240;DHT22;23130;48.760;9.178;2023-12-07T07:37:25;-1.00;99.90
37240;DHT22;23130;48.760;9.178;2023-12-07T07:39:51;-0.90;99.90
37240;DHT22;23130;48.760;9.178;2023-12-07T07:42:16;-0.90;99.90
37240;DHT22;23130;48.760;9.178;2023-12-07T07:44:42;-0.80;99.90
37240;DHT22;23130;48.760;9.178;2023-12-07T07:47:08;-0.80;99.90
37240;DHT22;23130;48.760;9.178;2023-12-07T07:49:34;-0.90;99.90
37240;DHT22;23130;48.760;9.178;2023-12-07T07:52:00;-0.90;99.90
37240;DHT22;23130;48.760;9.178;2023-12-07T07:54:25;-0.90;99.90
37240;DHT22;23130;48.760;9.178;2023-12-07T07:56:51;-0.90;99.90
37240;DHT22;23130;48.760;9.178;2023-12-07T07:59:17;-0.90;99.90
37240;DHT22;23130;48.760;9.178;2023-12-07T08:01:42;-0.90;99.90
37240;DHT22;23130;48.760;9.178;2023-12-07T08:04:08;-0.90;99.90
37240;DHT22;23130;48.760;9.178;2023-12-07T08:06:35;-0.90;99.90
37240;DHT22;23130;48.760;9.178;2023-12-07T08:09:01;-0.90;99.90
37240;DHT22;23130;48.760;9.178;2023-12-07T08:11:26;-0.90;99.90
37240;DHT22;23130;48.760;9.178;2023-12-07T08:13:52;-1.00;99.90
37240;DHT22;23130;48.760;9.178;2023-12-07T08:16:18;-1.00;99.90
37240;DHT22;23130;48.760;9.178;2023-12-07T08:18:44;-1.00;99.90
37240;DHT22;23130;48.760;9.178;2023-12-07T08:21:18;-1.00;99.90
37240;DHT22;23130;48.760;9.178;2023-12-07T08:23:44;-0.80;99.90
37240;DHT22;23130;48.760;9.178;2023-12-07T08:26:10;-0.70;99.90
37240;DHT22;23130;48.760;9.178;2023-12-07T08:28:36;-0.70;99.90
37240;DHT22;23130;48.760;9.178;2023-12-07T08:31:02;-0.60;99.90
37240;DHT22;23130;48.760;9.178;2023-12-07T08:33:29;-0.60;99.90
37240;DHT22;23130;48.760;9.178;2023-12-07T08:35:55;-0.50;99.90
37240;DHT22;23130;48.760;9.178;2023-12-07T08:38:22;-0.50;99.90
37240;DHT22;23130;48.760;9.178;2023-12-07T08:40:48;-0.40;99.90
37240;DHT22;23130;48.760;9.178;2023-12-07T08:43:13;-0.40;99.90
37240;DHT22;23130;48.760;9.178;2023-12-07T08:45:39;-0.40;99.90
37240;DHT22;23130;48.760;9.178;2023-12-07T08:48:04;-0.40;99.90
37240;DHT22;23130;48.760;9.178;2023-12-07T08:50:30;-0.50;99.90
37240;DHT22;23130;48.760;9.178;2023-12-07T08:52:55;-0.50;99.90
37240;DHT22;23130;48.760;9.178;2023-12-07T08:55:22;-0.50;99.90
37240;DHT22;23130;48.760;9.178;2023-12-07T08:57:47;-0.50;99.90
37240;DHT22;23130;48.760;9.178;2023-12-07T09:00:13;-0.50;99.90
37240;DHT22;23130;48.760;9.178;2023-12-07T09:02:39;-0.50;99.90
37240;DHT22;23130;48.760;9.178;2023-12-07T09:05:06;-0.40;99.90
37240;DHT22;23130;48.760;9.178;2023-12-07T09:07:32;-0.40;99.90
37240;DHT22;23130;48.760;9.178;2023-12-07T09:09:57;-0.40;99.90
37240;DHT22;23130;48.760;9.178;2023-12-07T09:12:23;-0.30;99.90
37240;DHT22;23130;48.760;9.178;2023-12-07T09:14:49;-0.20;99.90
37240;DHT22;23130;48.760;9.178;2023-12-07T09:17:16;-0.10;99.90
37240;DHT22;23130;48.760;9.178;2023-12-07T09:19:41;0.00;99.90
37240;DHT22;23130;48.760;9.178;2023-12-07T09:22:06;0.00;99.90
37240;DHT22;23130;48.760;9.178;2023-12-07T09:24:32;0.10;99.90
37240;DHT22;23130;48.760;9.178;2023-12-07T09:26:57;0.10;99.90
37240;DHT22;23130;48.760;9.178;2023-12-07T09:29:23;0.10;99.90
37240;DHT22;23130;48.760;9.178;2023-12-07T09:31:51;0.20;99.90
37240;DHT22;23130;48.760;9.178;2023-12-07T09:34:17;0.20;99.90
37240;DHT22;23130;48.760;9.178;2023-12-07T09:36:44;0.20;99.90
37240;DHT22;23130;48.760;9.178;2023-12-07T09:39:09;0.20;99.90
37240;DHT22;23130;48.760;9.178;2023-12-07T09:41:35;0.20;99.90
37240;DHT22;23130;48.760;9.178;2023-12-07T09:44:01;0.30;99.90
37240;DHT22;23130;48.760;9.178;2023-12-07T09:46:28;0.40;99.90
37240;DHT22;23130;48.760;9.178;2023-12-07T09:48:54;0.40;99.90
37240;DHT22;23130;48.760;9.178;2023-12-07T09:51:20;0.40;99.90
37240;DHT22;23130;48.760;9.178;2023-12-07T09:53:47;0.50;99.90
37240;DHT22;23130;48.760;9.178;2023-12-07T09:56:15;0.60;99.90
37240;DHT22;23130;48.760;9.178;2023-12-07T09:58:40;0.60;99.90
37240;DHT22;23130;48.760;9.178;2023-12-07T10:01:07;0.70;99.90
37240;DHT22;23130;48.760;9.178;2023-12-07T10:03:34;0.80;99.90
37240;DHT22;23130;48.760;9.178;2023-12-07T10:06:00;0.90;99.90
37240;DHT22;23130;48.760;9.178;2023-12-07T10:08:27;0.90;99.90
37240;DHT22;23130;48.760;9.178;2023-12-07T10:11:01;1.00;99.90
37240;DHT22;23130;48.760;9.178;2023-12-07T10:13:28;1.00;99.90
37240;DHT22;23130;48.760;9.178;2023-12-07T10:16:04;1.00;99.90
37240;DHT22;23130;48.760;9.178;2023-12-07T10:18:32;1.10;99.90
37240;DHT22;23130;48.760;9.178;2023-12-07T10:20:57;1.10;99.90
37240;DHT22;23130;48.760;9.178;2023-12-07T10:23:23;1.20;99.90
37240;DHT22;23130;48.760;9.178;2023-12-07T10:25:52;1.20;99.90
37240;DHT22;23130;48.760;9.178;2023-12-07T10:28:17;1.20;99.90
37240;DHT22;23130;48.760;9.178;2023-12-07T10:30:44;1.30;99.90
37240;DHT22;23130;48.760;9.178;2023-12-07T10:33:11;1.30;99.90
37240;DHT22;23130;48.760;9.178;2023-12-07T10:35:39;1.40;99.90
37240;DHT22;23130;48.760;9.178;2023-12-07T10:38:06;1.40;99.90
37240;DHT22;23130;48.760;9.178;2023-12-07T10:40:31;1.50;99.90
37240;DHT22;23130;48.760;9.178;2023-12-07T10:42:57;1.60;99.90
37240;DHT22;23130;48.760;9.178;2023-12-07T10:45:26;1.70;99.90
37240;DHT22;23130;48.760;9.178;2023-12-07T10:47:54;1.80;99.90
37240;DHT22;23130;48.760;9.178;2023-12-07T10:50:22;1.80;99.90
37240;DHT22;23130;48.760;9.178;2023-12-07T10:52:52;1.90;99.90
37240;DHT22;23130;48.760;9.178;2023-12-07T10:55:21;2.00;99.90
37240;DHT22;23130;48.760;9.178;2023-12-07T10:57:49;2.00;99.90
37240;DHT22;23130;48.760;9.178;2023-12-07T11:00:17;2.10;99.90
37240;DHT22;23130;48.760;9.178;2023-12-07T11:02:43;2.20;99.90
37240;DHT22;23130;48.760;9.178;2023-12-07T11:05:09;2.20;99.90
37240;DHT22;23130;48.760;9.178;2023-12-07T11:07:38;2.20;99.90
37240;DHT22;23130;48.760;9.178;2023-12-07T11:10:07;2.30;99.90
37240;DHT22;23130;48.760;9.178;2023-12-07T11:12:44;2.30;99.90
37240;DHT22;23130;48.760;9.178;2023-12-07T11:15:13;2.40;99.90
37240;DHT22;23130;48.760;9.178;2023-12-07T11:17:51;2.50;99.90
37240;DHT22;23130;48.760;9.178;2023-12-07T11:20:20;2.60;99.90
37240;DHT22;23130;48.760;9.178;2023-12-07T11:22:46;2.70;99.90
37240;DHT22;23130;48.760;9.178;2023-12-07T11:25:15;2.90;99.90
37240;DHT22;23130;48.760;9.178;2023-12-07T11:27:43;3.10;99.90
37240;DHT22;23130;48.760;9.178;2023-12-07T11:30:12;3.10;99.90
37240;DHT22;23130;48.760;9.178;2023-12-07T11:32:38;3.10;99.90
37240;DHT22;23130;48.760;9.178;2023-12-07T11:35:04;3.10;99.90
37240;DHT22;23130;48.760;9.178;2023-12-07T11:37:59;3.20;99.90
37240;DHT22;23130;48.760;9.178;2023-12-07T11:40:17;3.30;99.90
37240;DHT22;23130;48.760;9.178;2023-12-07T11:42:42;3.30;99.90
37240;DHT22;23130;48.760;9.178;2023-12-07T11:45:08;3.40;99.90
37240;DHT22;23130;48.760;9.178;2023-12-07T11:47:34;3.40;99.90
37240;DHT22;23130;48.760;9.178;2023-12-07T11:50:02;3.50;99.90
37240;DHT22;23130;48.760;9.178;2023-12-07T11:52:28;3.60;99.90
37240;DHT22;23130;48.760;9.178;2023-12-07T11:54:53;3.60;99.90
37240;DHT22;23130;48.760;9.178;2023-12-07T11:57:20;3.60;99.90
37240;DHT22;23130;48.760;9.178;2023-12-07T11:59:46;3.60;99.90
37240;DHT22;23130;48.760;9.178;2023-12-07T12:02:13;3.70;99.90
37240;DHT22;23130;48.760;9.178;2023-12-07T12:04:39;3.70;99.90
37240;DHT22;23130;48.760;9.178;2023-12-07T12:07:05;3.70;99.90
37240;DHT22;23130;48.760;9.178;2023-12-07T12:09:31;3.70;99.90
37240;DHT22;23130;48.760;9.178;2023-12-07T12:12:00;3.70;99.90
37240;DHT22;23130;48.760;9.178;2023-12-07T12:14:26;3.70;99.90
37240;DHT22;23130;48.760;9.178;2023-12-07T12:16:52;3.60;99.90
37240;DHT22;23130;48.760;9.178;2023-12-07T12:19:18;3.60;99.90
37240;DHT22;23130;48.760;9.178;2023-12-07T12:21:44;3.60;99.90
37240;DHT22;23130;48.760;9.178;2023-12-07T12:24:10;3.60;99.90
37240;DHT22;23130;48.760;9.178;2023-12-07T12:26:36;3.60;99.90
37240;DHT22;23130;48.760;9.178;2023-12-07T12:29:03;3.50;99.90
37240;DHT22;23130;48.760;9.178;2023-12-07T12:31:29;3.50;99.90
37240;DHT22;23130;48.760;9.178;2023-12-07T12:33:55;3.60;99.90
37240;DHT22;23130;48.760;9.178;2023-12-07T12:36:21;3.60;99.90
37240;DHT22;23130;48.760;9.178;2023-12-07T12:38:51;3.70;99.90
37240;DHT22;23130;48.760;9.178;2023-12-07T12:41:18;3.70;99.90
37240;DHT22;23130;48.760;9.178;2023-12-07T12:43:44;3.70;99.90
37240;DHT22;23130;48.760;9.178;2023-12-07T12:46:10;3.70;99.90
37240;DHT22;23130;48.760;9.178;2023-12-07T12:48:37;3.70;99.90
37240;DHT22;23130;48.760;9.178;2023-12-07T12:51:12;3.70;99.90
37240;DHT22;23130;48.760;9.178;2023-12-07T12:53:44;3.70;99.90
37240;DHT22;23130;48.760;9.178;2023-12-07T12:56:10;3.70;99.90
37240;DHT22;23130;48.760;9.178;2023-12-07T12:58:36;3.80;99.90
37240;DHT22;23130;48.760;9.178;2023-12-07T13:01:02;3.80;99.90
37240;DHT22;23130;48.760;9.178;2023-12-07T13:03:29;3.80;99.90
37240;DHT22;23130;48.760;9.178;2023-12-07T13:05:55;3.80;99.90
37240;DHT22;23130;48.760;9.178;2023-12-07T13:08:20;3.80;99.90
37240;DHT22;23130;48.760;9.178;2023-12-07T13:10:47;3.80;99.90
37240;DHT22;23130;48.760;9.178;2023-12-07T13:13:12;3.80;99.90
37240;DHT22;23130;48.760;9.178;2023-12-07T13:15:38;3.90;99.90
37240;DHT22;23130;48.760;9.178;2023-12-07T13:18:04;3.90;99.90
37240;DHT22;23130;48.760;9.178;2023-12-07T13:20:31;3.80;99.90
37240;DHT22;23130;48.760;9.178;2023-12-07T13:22:56;3.80;99.90
37240;DHT22;23130;48.760;9.178;2023-12-07T13:25:22;3.70;99.90
37240;DHT22;23130;48.760;9.178;2023-12-07T13:27:47;3.70;99.90
37240;DHT22;23130;48.760;9.178;2023-12-07T13:30:14;3.70;99.90
37240;DHT22;23130;48.760;9.178;2023-12-07T13:32:40;3.70;99.90
37240;DHT22;23130;48.760;9.178;2023-12-07T13:35:07;3.70;99.90
37240;DHT22;23130;48.760;9.178;2023-12-07T13:37:35;3.80;99.90
37240;DHT22;23130;48.760;9.178;2023-12-07T13:40:02;3.80;99.90
37240;DHT22;23130;48.760;9.178;2023-12-07T13:42:30;3.80;99.90
37240;DHT22;23130;48.760;9.178;2023-12-07T13:44:56;3.70;99.90
37240;DHT22;23130;48.760;9.178;2023-12-07T13:47:23;3.70;99.90
37240;DHT22;23130;48.760;9.178;2023-12-07T13:49:54;3.60;99.90
37240;DHT22;23130;48.760;9.178;2023-12-07T13:52:19;3.60;99.90
37240;DHT22;23130;48.760;9.178;2023-12-07T13:54:45;3.60;99.90
37240;DHT22;23130;48.760;9.178;2023-12-07T13:57:12;3.50;99.90
37240;DHT22;23130;48.760;9.178;2023-12-07T13:59:38;3.50;99.90
37240;DHT22;23130;48.760;9.178;2023-12-07T14:02:03;3.60;99.90
37240;DHT22;23130;48.760;9.178;2023-12-07T14:04:30;3.70;99.90
37240;DHT22;23130;48.760;9.178;2023-12-07T14:07:06;3.70;99.90
37240;DHT22;23130;48.760;9.178;2023-12-07T14:09:32;3.70;99.90
37240;DHT22;23130;48.760;9.178;2023-12-07T14:11:57;3.70;99.90
37240;DHT22;23130;48.760;9.178;2023-12-07T14:14:23;3.80;99.90
37240;DHT22;23130;48.760;9.178;2023-12-07T14:16:48;3.80;99.90
37240;DHT22;23130;48.760;9.178;2023-12-07T14:19:13;3.80;99.90
37240;DHT22;23130;48.760;9.178;2023-12-07T14:21:40;3.70;99.90
37240;DHT22;23130;48.760;9.178;2023-12-07T14:24:05;3.70;99.90
37240;DHT22;23130;48.760;9.178;2023-12-07T14:26:33;3.70;99.90
37240;DHT22;23130;48.760;9.178;2023-12-07T14:28:58;3.60;99.90
37240;DHT22;23130;48.760;9.178;2023-12-07T14:31:25;3.50;99.90
37240;DHT22;23130;48.760;9.178;2023-12-07T14:33:50;3.50;99.90
37240;DHT22;23130;48.760;9.178;2023-12-07T14:36:17;3.50;99.90
37240;DHT22;23130;48.760;9.178;2023-12-07T14:38:43;3.40;99.90
37240;DHT22;23130;48.760;9.178;2023-12-07T14:41:10;3.30;99.90
37240;DHT22;23130;48.760;9.178;2023-12-07T14:43:38;3.20;99.90
37240;DHT22;23130;48.760;9.178;2023-12-07T14:46:05;3.00;99.90
37240;DHT22;23130;48.760;9.178;2023-12-07T14:48:32;2.90;99.90
37240;DHT22;23130;48.760;9.178;2023-12-07T14:50:58;2.80;99.90
37240;DHT22;23130;48.760;9.178;2023-12-07T14:53:25;2.60;99.90
37240;DHT22;23130;48.760;9.178;2023-12-07T14:55:51;2.50;99.90
37240;DHT22;23130;48.760;9.178;2023-12-07T14:58:17;2.40;99.90
37240;DHT22;23130;48.760;9.178;2023-12-07T15:00:42;2.30;99.90
37240;DHT22;23130;48.760;9.178;2023-12-07T15:03:08;2.10;99.90
37240;DHT22;23130;48.760;9.178;2023-12-07T15:05:35;2.00;99.90
37240;DHT22;23130;48.760;9.178;2023-12-07T15:08:00;2.00;99.90
37240;DHT22;23130;48.760;9.178;2023-12-07T15:10:25;1.90;99.90
37240;DHT22;23130;48.760;9.178;2023-12-07T15:12:51;1.80;99.90
37240;DHT22;23130;48.760;9.178;2023-12-07T15:15:18;1.70;99.90
37240;DHT22;23130;48.760;9.178;2023-12-07T15:17:43;1.60;99.90
37240;DHT22;23130;48.760;9.178;2023-12-07T15:20:11;1.50;99.90
37240;DHT22;23130;48.760;9.178;2023-12-07T15:22:38;1.40;99.90
37240;DHT22;23130;48.760;9.178;2023-12-07T15:25:05;1.30;99.90
37240;DHT22;23130;48.760;9.178;2023-12-07T15:27:31;1.40;99.90
37240;DHT22;23130;48.760;9.178;2023-12-07T15:29:56;1.30;99.90
37240;DHT22;23130;48.760;9.178;2023-12-07T15:32:22;1.30;99.90
37240;DHT22;23130;48.760;9.178;2023-12-07T15:34:47;1.20;99.90
37240;DHT22;23130;48.760;9.178;2023-12-07T15:37:14;1.10;99.90